Terminal Aerodrome Forecast
Issued by NWS

Home | Current Version | Previous Version | Graphics & Text | Print | Product List | Glossary On
Versions: 1 2 3 4 5 6 7 8 9 10 11 12 13 14 15 16 17
703
FTUS43 KMPX 161504 AAA
TAFRWF
TAF AMD
KRWF 161504Z 1615/1712 32008KT P6SM FEW025
     FM161700 33012G18KT P6SM BKN025
     FM162100 32012KT P6SM BKN040
     FM170000 31004KT P6SM SKC=

USA.gov is the U.S. government's official web portal to all federal, state and local government web resources and services.